createdAt,value
2023-01-05T00:00:13.034Z,100636.97
2023-01-05T00:03:16.933Z,100633.72
2023-01-05T00:06:18.805Z,100631.09
2023-01-05T00:09:21.862Z,100618.75
2023-01-05T00:12:42.407Z,100624.47
2023-01-05T00:16:02.763Z,100630.97
2023-01-05T00:19:22.968Z,100634.03
2023-01-05T00:22:30.540Z,100631.59
2023-01-05T00:25:37.497Z,100627.44
2023-01-05T00:28:39.117Z,100618.00
2023-01-05T00:31:40.992Z,100609.97
2023-01-05T00:34:42.746Z,100620.47
2023-01-05T00:37:45.374Z,100607.34
2023-01-05T00:40:49.578Z,100604.84
2023-01-05T00:43:51.174Z,100599.47
2023-01-05T00:46:52.881Z,100608.28
2023-01-05T00:49:54.829Z,100619.56
2023-01-05T00:52:56.520Z,100615.22
2023-01-05T00:56:00.127Z,100607.94
2023-01-05T00:59:02.535Z,100615.06
2023-01-05T01:02:04.455Z,100609.63
2023-01-05T01:05:07.200Z,100613.34
2023-01-05T01:08:08.813Z,100602.50
2023-01-05T01:11:11.924Z,100591.25
2023-01-05T01:14:13.938Z,100593.88
2023-01-05T01:17:16.047Z,100588.47
2023-01-05T01:20:18.774Z,100579.22
2023-01-05T01:23:20.534Z,100586.31
2023-01-05T01:26:23.597Z,100586.31
2023-01-05T01:29:25.242Z,100593.13
2023-01-05T01:32:26.946Z,100590.03
2023-01-05T01:35:28.522Z,100582.75
2023-01-05T01:38:30.560Z,100593.25
2023-01-05T01:41:33.881Z,100593.72
2023-01-05T01:44:53.713Z,100599.47
2023-01-05T01:48:00.497Z,100598.50
2023-01-05T01:51:08.329Z,100591.88
2023-01-05T01:54:13.584Z,100596.50
2023-01-05T01:57:16.606Z,100600.53
2023-01-05T02:00:19.352Z,100595.88
2023-01-05T02:03:20.961Z,100593.59
2023-01-05T02:06:23.829Z,100580.94
2023-01-05T02:09:25.960Z,100584.78
2023-01-05T02:12:38.104Z,100573.53
2023-01-05T02:15:48.284Z,100569.94
2023-01-05T02:19:23.874Z,100571.78
2023-01-05T02:22:34.802Z,100581.22
2023-01-05T02:26:08.097Z,100574.88
2023-01-05T02:29:32.223Z,100590.31
2023-01-05T02:32:42.927Z,100599.75
2023-01-05T02:35:54.614Z,100603.91
2023-01-05T02:39:03.085Z,100608.41
2023-01-05T02:42:11.185Z,100612.56
2023-01-05T02:45:16.516Z,100609.47
2023-01-05T02:48:21.814Z,100607.78
2023-01-05T02:51:28.507Z,100605.47
2023-01-05T02:54:34.374Z,100599.75
2023-01-05T02:57:47.219Z,100602.50
2023-01-05T03:00:56.930Z,100624.81
2023-01-05T03:04:09.612Z,100620.47
2023-01-05T03:07:14.550Z,100619.22
2023-01-05T03:10:34.456Z,100629.53
2023-01-05T03:13:41.772Z,100626.78
2023-01-05T03:16:47.955Z,100620.44
2023-01-05T03:19:53.873Z,100619.22
2023-01-05T03:23:19.301Z,100626.47
2023-01-05T03:26:39.767Z,100629.88
2023-01-05T03:30:01.469Z,100634.66
2023-01-05T03:33:28.520Z,100641.16
2023-01-05T03:36:39.260Z,100651.97
2023-01-05T03:39:43.466Z,100650.91
2023-01-05T03:42:47.209Z,100662.16
2023-01-05T03:45:53.969Z,100655.50
2023-01-05T03:48:59.476Z,100653.66
2023-01-05T03:52:03.899Z,100642.53
2023-01-05T03:55:06.144Z,100653.50
2023-01-05T03:58:08.311Z,100650.88
2023-01-05T04:01:10.939Z,100647.63
2023-01-05T04:04:13.630Z,100647.03
2023-01-05T04:07:16.865Z,100657.38
2023-01-05T04:10:19.095Z,100675.13
2023-01-05T04:13:20.994Z,100686.16
2023-01-05T04:16:23.202Z,100679.50
2023-01-05T04:19:27.038Z,100686.28
2023-01-05T04:22:31.542Z,100691.72
2023-01-05T04:25:33.219Z,100684.28
2023-01-05T04:28:46.226Z,100681.81
2023-01-05T04:31:48.147Z,100689.09
2023-01-05T04:34:50.046Z,100690.31
2023-01-05T04:37:58.902Z,100701.75
2023-01-05T04:41:01.139Z,100704.69
2023-01-05T04:44:03.297Z,100705.91
2023-01-05T04:47:05.107Z,100709.00
2023-01-05T04:50:09.790Z,100707.00
2023-01-05T04:53:14.310Z,100704.78
2023-01-05T04:56:17.790Z,100708.16
2023-01-05T04:59:20.786Z,100719.88
2023-01-05T05:02:23.157Z,100734.81
2023-01-05T05:05:25.885Z,100745.44
2023-01-05T05:08:30.760Z,100743.66
2023-01-05T05:11:34.720Z,100747.06
2023-01-05T05:14:36.461Z,100755.84
2023-01-05T05:17:38.122Z,100759.06
2023-01-05T05:20:43.418Z,100757.56
2023-01-05T05:23:47.592Z,100765.31
2023-01-05T05:26:53.888Z,100775.38
2023-01-05T05:29:55.493Z,100780.72
2023-01-05T05:32:57.190Z,100778.66
2023-01-05T05:35:58.837Z,100786.09
2023-01-05T05:39:01.978Z,100782.34
2023-01-05T05:42:03.796Z,100787.09
2023-01-05T05:45:06.578Z,100790.06
2023-01-05T05:48:08.568Z,100792.75
2023-01-05T05:51:10.663Z,100788.28
2023-01-05T05:54:13.752Z,100783.41
2023-01-05T05:57:17.554Z,100772.69
2023-01-05T06:00:19.424Z,100776.25
2023-01-05T06:03:21.186Z,100779.84
2023-01-05T06:06:22.953Z,100779.16
2023-01-05T06:09:26.676Z,100785.56
2023-01-05T06:12:28.469Z,100794.25
2023-01-05T06:15:30.538Z,100804.59
2023-01-05T06:18:32.203Z,100808.50
2023-01-05T06:21:33.918Z,100793.34
2023-01-05T06:24:36.946Z,100794.69
2023-01-05T06:27:38.751Z,100803.44
2023-01-05T06:30:40.369Z,100810.69
2023-01-05T06:33:42.023Z,100811.03
2023-01-05T06:36:43.601Z,100824.53
2023-01-05T06:39:46.517Z,100820.19
2023-01-05T06:42:50.861Z,100816.53
2023-01-05T06:45:52.920Z,100816.22
2023-01-05T06:48:54.687Z,100819.91
2023-01-05T06:51:56.398Z,100813.97
2023-01-05T06:54:59.362Z,100820.06
2023-01-05T06:58:01.554Z,100827.69
2023-01-05T07:01:03.423Z,100828.91
2023-01-05T07:04:05.423Z,100828.66
2023-01-05T07:07:07.175Z,100833.72
2023-01-05T07:10:10.456Z,100841.59
2023-01-05T07:13:12.111Z,100841.59
2023-01-05T07:16:13.746Z,100843.47
2023-01-05T07:19:15.346Z,100840.22
2023-01-05T07:22:17.072Z,100837.25
2023-01-05T07:25:20.001Z,100844.34
2023-01-05T07:28:21.630Z,100841.56
2023-01-05T07:31:23.294Z,100849.88
2023-01-05T07:34:24.953Z,100858.28
2023-01-05T07:37:26.561Z,100857.53
2023-01-05T07:40:29.511Z,100851.09
2023-01-05T07:43:31.175Z,100856.22
2023-01-05T07:46:32.848Z,100858.00
2023-01-05T07:49:34.459Z,100859.88
2023-01-05T07:52:36.155Z,100865.88
2023-01-05T07:55:39.184Z,100875.25
2023-01-05T07:58:42.759Z,100886.97
2023-01-05T08:01:45.108Z,100885.44
2023-01-05T08:04:47.213Z,100881.88
2023-01-05T08:07:49.137Z,100877.56
2023-01-05T08:10:52.206Z,100886.34
2023-01-05T08:13:59.868Z,100889.44
2023-01-05T08:17:01.782Z,100903.00
2023-01-05T08:20:03.758Z,100907.38
2023-01-05T08:23:05.419Z,100902.94
2023-01-05T08:26:11.119Z,100903.53
2023-01-05T08:29:12.777Z,100916.66
2023-01-05T08:32:14.538Z,100910.22
2023-01-05T08:35:16.471Z,100915.19
2023-01-05T08:38:20.570Z,100921.03
2023-01-05T08:41:25.610Z,100926.00
2023-01-05T08:44:27.265Z,100930.31
2023-01-05T08:47:28.903Z,100932.91
2023-01-05T08:50:31.654Z,100926.31
2023-01-05T08:53:34.573Z,100929.19
2023-01-05T08:56:39.325Z,100935.69
2023-01-05T08:59:41.641Z,100924.28
2023-01-05T09:02:43.626Z,100934.34
2023-01-05T09:05:45.527Z,100940.06
2023-01-05T09:08:47.555Z,100941.91
2023-01-05T09:11:50.663Z,100938.69
2023-01-05T09:14:54.367Z,100937.94
2023-01-05T09:17:56.074Z,100942.31
2023-01-05T09:20:58.590Z,100942.06
2023-01-05T09:24:00.272Z,100954.63
2023-01-05T09:27:05.470Z,100955.28
2023-01-05T09:30:09.161Z,100952.16
2023-01-05T09:33:10.938Z,100960.22
2023-01-05T09:36:13.916Z,100958.81
2023-01-05T09:39:15.709Z,100949.41
2023-01-05T09:42:21.824Z,100958.50
2023-01-05T09:45:26.775Z,100962.34
2023-01-05T09:48:35.483Z,100961.44
2023-01-05T09:51:37.213Z,100965.03
2023-01-05T09:54:40.042Z,100961.34
2023-01-05T09:57:48.195Z,100966.44
2023-01-05T10:01:04.553Z,100960.59
2023-01-05T10:04:11.450Z,100963.84
2023-01-05T10:07:20.893Z,100957.66
2023-01-05T10:10:32.350Z,100967.13
2023-01-05T10:13:39.148Z,100956.00
2023-01-05T10:16:44.074Z,100956.44
2023-01-05T10:19:46.588Z,100953.19
2023-01-05T10:22:58.128Z,100969.63
2023-01-05T10:26:06.233Z,100964.94
2023-01-05T10:29:11.982Z,100964.78
2023-01-05T10:32:24.747Z,100959.06
2023-01-05T10:36:00.152Z,100952.91
2023-01-05T10:39:07.943Z,100965.09
2023-01-05T10:42:16.446Z,100967.56
2023-01-05T10:45:21.011Z,100966.94
2023-01-05T10:48:30.154Z,100977.63
2023-01-05T10:51:33.619Z,100961.53
2023-01-05T10:54:38.337Z,100967.84
2023-01-05T10:57:41.136Z,100969.44
2023-01-05T11:00:44.225Z,100979.19
2023-01-05T11:07:10.865Z,100961.84
2023-01-05T11:10:21.060Z,100968.81
2023-01-05T11:13:33.483Z,100956.56
2023-01-05T11:16:38.223Z,100964.78
2023-01-05T11:19:44.437Z,100966.94
2023-01-05T11:22:48.250Z,100971.31
2023-01-05T11:25:50.056Z,100973.94
2023-01-05T11:28:59.606Z,100969.88
2023-01-05T11:32:05.286Z,100973.13
2023-01-05T11:35:19.078Z,100976.72
2023-01-05T11:38:23.988Z,100973.91
2023-01-05T11:41:28.634Z,100978.25
2023-01-05T11:44:31.690Z,100981.53
2023-01-05T11:47:43.995Z,100986.63
2023-01-05T11:50:49.134Z,100979.50
2023-01-05T11:53:50.866Z,100980.84
2023-01-05T11:57:06.906Z,100984.09
2023-01-05T12:00:23.680Z,100989.09
2023-01-05T12:03:44.245Z,100983.03
2023-01-05T12:06:56.383Z,100988.00
2023-01-05T12:10:03.052Z,100981.47
2023-01-05T12:13:16.062Z,100988.31
2023-01-05T12:16:32.386Z,100980.28
2023-01-05T12:19:55.955Z,100980.84
2023-01-05T12:23:17.501Z,100983.97
2023-01-05T12:26:26.256Z,100984.75
2023-01-05T12:37:07.211Z,100989.22
2023-01-05T12:40:37.297Z,100994.16
2023-01-05T12:43:48.698Z,100989.66
2023-01-05T12:47:04.732Z,100998.78
2023-01-05T12:50:22.863Z,101001.44
2023-01-05T12:53:37.678Z,101008.44
2023-01-05T12:56:44.265Z,101006.13
2023-01-05T12:59:52.729Z,100997.00
2023-01-05T13:02:57.420Z,100987.69
2023-01-05T13:06:04.557Z,100996.06
2023-01-05T13:09:16.090Z,101005.03
2023-01-05T13:12:17.836Z,100999.91
2023-01-05T13:15:25.002Z,101005.03
2023-01-05T13:18:27.047Z,101001.81
2023-01-05T13:21:30.731Z,101001.16
2023-01-05T13:24:39.603Z,101003.69
2023-01-05T13:27:41.286Z,101008.03
2023-01-05T13:30:53.161Z,101003.97
2023-01-05T13:34:13.247Z,101014.03
2023-01-05T13:37:32.748Z,101008.28
2023-01-05T13:40:51.471Z,101003.53
2023-01-05T13:44:26.839Z,101019.16
2023-01-05T13:47:45.262Z,101013.44
2023-01-05T13:51:15.239Z,101018.81
2023-01-05T13:54:20.721Z,101016.97
2023-01-05T13:57:26.846Z,101015.72
2023-01-05T14:00:31.522Z,101011.88
2023-01-05T14:03:38.944Z,101013.44
2023-01-05T14:06:44.685Z,101016.19
2023-01-05T14:09:49.553Z,101013.09
2023-01-05T14:12:56.063Z,101014.31
2023-01-05T14:15:57.671Z,101007.53
2023-01-05T14:19:12.717Z,101015.56
2023-01-05T14:22:37.195Z,101018.84
2023-01-05T14:25:48.845Z,101016.97
2023-01-05T14:28:51.872Z,101022.25
2023-01-05T14:31:53.574Z,101014.31
2023-01-05T14:38:07.341Z,101024.09
2023-01-05T14:41:26.588Z,101014.03
2023-01-05T14:44:35.980Z,101018.69
2023-01-05T14:47:42.131Z,101025.03
2023-01-05T14:50:44.802Z,101027.81
2023-01-05T14:53:47.732Z,101030.59
2023-01-05T14:57:21.319Z,101032.59
2023-01-05T15:00:36.450Z,101041.72
2023-01-05T15:03:47.275Z,101044.34
2023-01-05T15:07:02.903Z,101040.31
2023-01-05T15:10:16.781Z,101048.47
2023-01-05T15:14:10.138Z,101049.13
2023-01-05T15:17:42.039Z,101050.03
2023-01-05T15:21:19.253Z,101050.19
2023-01-05T15:25:01.343Z,101044.28
2023-01-05T15:28:24.880Z,101061.81
2023-01-05T15:31:36.900Z,101058.25
2023-01-05T15:34:46.007Z,101059.94
2023-01-05T15:37:48.776Z,101051.75
2023-01-05T15:40:59.159Z,101060.22
2023-01-05T15:44:00.987Z,101058.69
2023-01-05T15:47:04.781Z,101061.81
2023-01-05T15:50:18.078Z,101046.44
2023-01-05T15:53:25.374Z,101049.44
2023-01-05T15:56:31.034Z,101042.91
2023-01-05T15:59:38.014Z,101046.09
2023-01-05T16:02:39.736Z,101045.91
2023-01-05T16:05:42.856Z,101043.06
2023-01-05T16:08:47.331Z,101049.66
2023-01-05T16:11:50.926Z,101056.44
2023-01-05T16:14:57.708Z,101048.09
2023-01-05T16:18:00.161Z,101046.72
2023-01-05T16:21:10.291Z,101048.25
2023-01-05T16:24:19.698Z,101052.91
2023-01-05T16:27:21.682Z,101039.91
2023-01-05T16:30:30.116Z,101053.78
2023-01-05T16:33:38.527Z,101052.25
2023-01-05T16:36:58.856Z,101048.81
2023-01-05T16:40:01.564Z,101061.38
2023-01-05T16:43:03.422Z,101060.94
2023-01-05T16:46:28.788Z,101068.38
2023-01-05T16:49:41.164Z,101067.63
2023-01-05T16:52:53.753Z,101066.56
2023-01-05T16:55:57.335Z,101061.69
2023-01-05T16:59:02.618Z,101061.91
2023-01-05T17:02:34.178Z,101055.44
2023-01-05T17:05:35.850Z,101047.06
2023-01-05T17:08:39.057Z,101051.19
2023-01-05T17:11:41.064Z,101056.34
2023-01-05T17:14:44.375Z,101047.31
2023-01-05T17:17:45.989Z,101047.03
2023-01-05T17:20:48.759Z,101045.47
2023-01-05T17:23:53.944Z,101045.16
2023-01-05T17:26:55.676Z,101047.47
2023-01-05T17:29:57.305Z,101044.78
2023-01-05T17:32:59.163Z,101048.34
2023-01-05T17:36:01.873Z,101036.69
2023-01-05T17:39:05.166Z,101056.34
2023-01-05T17:42:25.696Z,101060.56
2023-01-05T17:45:27.455Z,101052.22
2023-01-05T17:48:29.108Z,101052.53
2023-01-05T17:51:31.182Z,101049.91
2023-01-05T17:54:34.215Z,101048.19
2023-01-05T17:57:36.022Z,101048.19
2023-01-05T18:00:42.582Z,101043.53
2023-01-05T18:03:44.315Z,101036.75
2023-01-05T18:06:45.958Z,101040.44
2023-01-05T18:09:48.919Z,101046.16
2023-01-05T18:12:50.969Z,101042.16
2023-01-05T18:15:53.094Z,101041.19
2023-01-05T18:18:55.169Z,101039.03
2023-01-05T18:21:58.140Z,101041.56
2023-01-05T18:25:01.293Z,101040.44
2023-01-05T18:28:02.991Z,101038.72
2023-01-05T18:31:09.899Z,101045.38
2023-01-05T18:34:11.612Z,101039.19
2023-01-05T18:37:21.320Z,101033.75
2023-01-05T18:40:24.904Z,101041.19
2023-01-05T18:43:26.604Z,101042.75
2023-01-05T18:46:29.453Z,101041.63
2023-01-05T18:49:31.175Z,101039.72
2023-01-05T18:52:34.101Z,101040.94
2023-01-05T18:55:40.303Z,101030.72
2023-01-05T18:58:42.554Z,101034.69
2023-01-05T19:01:44.753Z,101033.94
2023-01-05T19:04:46.585Z,101035.38
2023-01-05T19:07:50.944Z,101034.63
2023-01-05T19:10:53.986Z,101030.28
2023-01-05T19:13:57.148Z,101021.22
2023-01-05T19:16:59.020Z,101029.25
2023-01-05T19:20:00.680Z,101030.97
2023-01-05T19:23:02.312Z,101034.47
2023-01-05T19:26:07.008Z,101037.84
2023-01-05T19:29:11.317Z,101048.38
2023-01-05T19:32:13.215Z,101045.34
2023-01-05T19:35:15.326Z,101040.38
2023-01-05T19:38:17.193Z,101044.94
2023-01-05T19:41:22.580Z,101040.50
2023-01-05T19:44:24.360Z,101049.88
2023-01-05T19:47:26.333Z,101054.97
2023-01-05T19:50:27.953Z,101044.72
2023-01-05T19:53:30.056Z,101051.25
2023-01-05T19:56:34.758Z,101045.59
2023-01-05T19:59:36.364Z,101043.97
2023-01-05T20:02:37.997Z,101045.06
2023-01-05T20:05:39.798Z,101044.22
2023-01-05T20:08:42.048Z,101046.00
2023-01-05T20:11:48.723Z,101043.81
2023-01-05T20:14:50.353Z,101038.72
2023-01-05T20:17:52.102Z,101040.78
2023-01-05T20:20:53.704Z,101034.13
2023-01-05T20:23:55.359Z,101036.75
2023-01-05T20:27:00.844Z,101038.16
2023-01-05T20:30:03.226Z,101034.13
2023-01-05T20:33:05.367Z,101035.66
2023-01-05T20:36:07.267Z,101036.16
2023-01-05T20:39:10.626Z,101032.19
2023-01-05T20:42:14.017Z,101033.00
2023-01-05T20:45:16.150Z,101020.22
2023-01-05T20:48:17.873Z,101029.09
2023-01-05T20:51:23.949Z,101022.88
2023-01-05T20:54:25.770Z,101024.16
2023-01-05T20:57:28.867Z,101027.09
2023-01-05T21:00:30.918Z,101019.06
2023-01-05T21:03:32.726Z,101018.16
2023-01-05T21:06:35.038Z,101030.94
2023-01-05T21:09:36.999Z,101017.97
2023-01-05T21:12:40.383Z,101019.34
2023-01-05T21:15:42.227Z,101018.03
2023-01-05T21:18:44.907Z,101021.41
2023-01-05T21:21:48.001Z,101022.69
2023-01-05T21:24:49.650Z,101022.34
2023-01-05T21:27:52.654Z,101013.09
2023-01-05T21:30:54.351Z,101023.59
2023-01-05T21:33:56.025Z,101015.59
2023-01-05T21:36:57.701Z,101028.31
2023-01-05T21:40:02.545Z,101017.16
2023-01-05T21:43:05.766Z,101019.63
2023-01-05T21:46:10.063Z,101014.22
2023-01-05T21:49:12.551Z,101022.69
2023-01-05T21:52:35.903Z,101009.56
2023-01-05T21:55:56.127Z,101007.84
2023-01-05T21:59:00.078Z,101009.28
2023-01-05T22:02:01.856Z,101008.50
2023-01-05T22:05:03.944Z,101004.03
2023-01-05T22:08:05.621Z,100998.94
2023-01-05T22:11:07.460Z,100999.09
2023-01-05T22:14:10.548Z,100991.16
2023-01-05T22:17:12.286Z,100994.69
2023-01-05T22:20:16.462Z,100990.19
2023-01-05T22:23:18.523Z,100985.91
2023-01-05T22:26:20.551Z,100995.50
2023-01-05T22:29:24.265Z,100984.06
2023-01-05T22:32:25.849Z,100992.22
2023-01-05T22:35:27.766Z,100985.59
2023-01-05T22:38:30.272Z,100985.75
2023-01-05T22:41:31.981Z,100989.47
2023-01-05T22:44:35.021Z,100985.47
2023-01-05T22:47:36.664Z,100986.38
2023-01-05T22:50:38.283Z,100987.00
2023-01-05T22:53:40.695Z,100986.06
2023-01-05T22:56:42.382Z,100988.25
2023-01-05T22:59:45.469Z,100983.94
2023-01-05T23:02:47.344Z,100985.03
2023-01-05T23:05:49.018Z,100986.13
2023-01-05T23:08:51.895Z,100973.16
2023-01-05T23:11:53.669Z,100978.56
2023-01-05T23:14:56.903Z,100973.75
2023-01-05T23:17:58.601Z,100965.56
2023-01-05T23:21:03.190Z,100964.66
2023-01-05T23:24:05.238Z,100964.16
2023-01-05T23:27:06.863Z,100962.94
2023-01-05T23:30:12.147Z,100958.75
2023-01-05T23:33:14.915Z,100948.09
2023-01-05T23:36:20.884Z,100941.00
2023-01-05T23:39:22.623Z,100940.81
2023-01-05T23:42:43.140Z,100930.97
2023-01-05T23:45:46.924Z,100941.63
2023-01-05T23:48:49.446Z,100931.56
2023-01-05T23:51:51.242Z,100929.69
2023-01-05T23:54:52.827Z,100932.31
2023-01-05T23:57:54.782Z,100927.97
